• Join FlightAware (Why Join?)
  • Login
  • US Flag 
01:39AM EST


 

Airport Tracker/Info


-or-


 

Live Flight TrackerFlight Track Log ✈ SWA554 ✈ 08-Apr-2013 ✈ KLAS - KPHX

Flight Track Log - Related Links

Times and Time Zones

All times are in EDT time to prevent confusion due to time zone crossing. See the SWA554 flight status page for this flight to view local times or setup timezone preferences in your user account.

Time Position Orientation Groundspeed Altitude Reporting Facility
EDT Latitude Longitude Course Direction KTS MPH feet Rate Location/Type
09:21AM 36.0753 -115.1550 265° West 133 153 3,300  Level Los Angeles Center
09:23AM 36.0703 -115.2314 265° West 209 241 6,700 3,300 Climbing Los Angeles Center
09:24AM 36.0178 -115.2778 216° Southwest 266 306 10,300 3,420 Climbing Los Angeles Center
09:25AM 35.9492 -115.2497 162° South 309 356 13,600 2,400 Climbing Los Angeles Center
09:26AM 35.9289 -115.1192 101° East 359 413 15,500 2,640 Climbing Los Angeles Center
09:27AM 35.9094 -114.9842 100° East 392 451 19,400 3,240 Climbing Los Angeles Center
09:28AM 35.8900 -114.8431 100° East 412 474 22,200 2,640 Climbing Los Angeles Center
09:29AM 35.8686 -114.6975 100° East 425 489 24,800 2,400 Climbing Los Angeles Center
09:30AM 35.8339 -114.5547 107° East 432 497 27,100 2,040 Climbing Los Angeles Center
09:31AM 35.7528 -114.4033 123° Southeast 438 504 29,000 900 Climbing Los Angeles Center
09:32AM 35.6856 -114.2758 123° Southeast 443 510 29,000  Level Los Angeles Center
09:33AM 35.6208 -114.1553 123° Southeast 438 504 29,000  Level Los Angeles Center
09:34AM 35.5536 -114.0292 123° Southeast 442 509 29,000  Level Los Angeles Center
09:35AM 35.4864 -113.9039 123° Southeast 441 507 29,000  Level Los Angeles Center
09:36AM 35.4172 -113.7767 124° Southeast 448 516 29,000  Level Los Angeles Center
09:37AM 35.3492 -113.6517 124° Southeast 446 513 29,000  Level Los Angeles Center
09:38AM 35.2828 -113.5289 123° Southeast 438 504 29,000  Level Los Angeles Center
09:39AM 35.2161 -113.4053 123° Southeast 439 505 29,000  Level Los Angeles Center
09:40AM 35.1347 -113.2575 124° Southeast 442 509 29,000  Level Los Angeles Center
09:41AM 35.0683 -113.1361 124° Southeast 439 505 29,000  Level Los Angeles Center
09:42AM 35.0014 -113.0150 124° Southeast 436 502 29,000  Level Los Angeles Center
09:43AM 34.9336 -112.8936 124° Southeast 438 504 29,000  Level Los Angeles Center
09:44AM 34.8664 -112.7725 124° Southeast 438 504 29,000 -60 Level Los Angeles Center
09:45AM 34.7844 -112.6253 124° Southeast 441 507 28,900 -1,440 Descending Albuquerque Center
09:46AM 34.7111 -112.4994 125° Southeast 455 524 26,000 -2,520 Descending Albuquerque Center
09:47AM 34.6194 -112.3983 138° Southeast 444 511 23,800 -2,100 Descending Albuquerque Center
09:48AM 34.5350 -112.3172 142° Southeast 435 501 21,800 -1,920 Descending Albuquerque Center
09:49AM 34.4219 -112.2253 146° Southeast 411 473 20,000 -1,260 Descending Albuquerque Center
09:50AM 34.3289 -112.1983 167° South 353 406 19,300 -1,380 Descending Albuquerque Center
09:51AM 34.2403 -112.1772 169° South 333 383 17,300 -1,920 Descending Albuquerque Center
09:52AM 34.1511 -112.1528 167° South 330 380 15,400 -1,440 Descending Albuquerque Center
09:53AM 34.0678 -112.1364 171° South 305 351 14,400 -1,200 Descending Albuquerque Center
09:54AM 33.9936 -112.1453 186° South 272 313 13,000 -1,380 Descending Albuquerque Center
09:55AM 33.9214 -112.1536 185° South 264 304 11,600 -1,440 Descending Albuquerque Center
09:56AM 33.8519 -112.1672 189° South 256 295 10,100 -1,380 Descending Albuquerque Center
09:57AM 33.7839 -112.1817 190° South 250 288 8,800 -1,140 Descending Albuquerque Center
09:58AM 33.7069 -112.1983 190° South 235 270 7,900 -840 Descending Albuquerque Center
09:59AM 33.6525 -112.2097 190° South 203 234 7,200 -960 Descending Albuquerque Center
10:00AM 33.5944 -112.2217 190° South 209 241 6,000 -660 Descending Albuquerque Center
10:01AM 33.5383 -112.2344 191° South 207 238 5,900 -480 Descending Albuquerque Center
10:02AM 33.4844 -112.2083 158° South 216 249 5,100 -960 Descending Albuquerque Center
10:03AM 33.4583 -112.1447 116° Southeast 215 247 4,000 -1,260 Descending Albuquerque Center
10:04AM 33.4403 -112.0925 112° Southeast 174 200 2,600 -1,320 Descending Albuquerque Center
10:05AM 33.4411 -112.0386 89° East 162 186 1,400 -1,200 Descending Albuquerque Center
10:07AM 33.4343 -112.0116 270° West  Level Estimated